sensor_id;sensor_type;location;lat;lon;timestamp;temperature;humidity
21950;DHT22;11139;51.284;7.226;2022-08-19T00:02:16;22.70;91.30
21950;DHT22;11139;51.284;7.226;2022-08-19T00:04:42;22.70;91.40
21950;DHT22;11139;51.284;7.226;2022-08-19T00:07:15;22.70;91.40
21950;DHT22;11139;51.284;7.226;2022-08-19T00:09:41;22.60;91.40
21950;DHT22;11139;51.284;7.226;2022-08-19T00:12:06;22.60;91.40
21950;DHT22;11139;51.284;7.226;2022-08-19T00:14:35;22.60;91.40
21950;DHT22;11139;51.284;7.226;2022-08-19T00:17:04;22.60;91.40
21950;DHT22;11139;51.284;7.226;2022-08-19T00:19:35;22.60;91.40
21950;DHT22;11139;51.284;7.226;2022-08-19T00:22:03;22.60;91.40
21950;DHT22;11139;51.284;7.226;2022-08-19T00:24:36;22.60;91.40
21950;DHT22;11139;51.284;7.226;2022-08-19T00:27:04;22.50;91.30
21950;DHT22;11139;51.284;7.226;2022-08-19T00:29:35;22.60;91.40
21950;DHT22;11139;51.284;7.226;2022-08-19T00:32:04;22.60;91.40
21950;DHT22;11139;51.284;7.226;2022-08-19T00:34:29;22.50;91.30
21950;DHT22;11139;51.284;7.226;2022-08-19T00:36:56;22.50;91.30
21950;DHT22;11139;51.284;7.226;2022-08-19T00:39:21;22.50;91.30
21950;DHT22;11139;51.284;7.226;2022-08-19T00:41:47;22.50;91.30
21950;DHT22;11139;51.284;7.226;2022-08-19T00:44:17;22.50;91.30
21950;DHT22;11139;51.284;7.226;2022-08-19T00:46:48;22.50;91.30
21950;DHT22;11139;51.284;7.226;2022-08-19T00:51:57;22.50;91.30
21950;DHT22;11139;51.284;7.226;2022-08-19T00:54:25;22.50;91.30
21950;DHT22;11139;51.284;7.226;2022-08-19T00:56:57;22.50;91.30
21950;DHT22;11139;51.284;7.226;2022-08-19T00:59:23;22.50;91.30
21950;DHT22;11139;51.284;7.226;2022-08-19T01:01:51;22.40;91.30
21950;DHT22;11139;51.284;7.226;2022-08-19T01:04:17;22.40;91.30
21950;DHT22;11139;51.284;7.226;2022-08-19T01:06:45;22.40;91.30
21950;DHT22;11139;51.284;7.226;2022-08-19T01:09:10;22.40;91.30
21950;DHT22;11139;51.284;7.226;2022-08-19T01:11:38;22.40;91.30
21950;DHT22;11139;51.284;7.226;2022-08-19T01:14:08;22.40;91.30
21950;DHT22;11139;51.284;7.226;2022-08-19T01:16:34;22.40;91.30
21950;DHT22;11139;51.284;7.226;2022-08-19T01:19:00;22.40;91.30
21950;DHT22;11139;51.284;7.226;2022-08-19T01:23:54;22.40;91.30
21950;DHT22;11139;51.284;7.226;2022-08-19T01:26:23;22.30;91.20
21950;DHT22;11139;51.284;7.226;2022-08-19T01:28:50;22.40;91.30
21950;DHT22;11139;51.284;7.226;2022-08-19T01:31:18;22.30;91.20
21950;DHT22;11139;51.284;7.226;2022-08-19T01:33:48;22.30;91.20
21950;DHT22;11139;51.284;7.226;2022-08-19T01:36:15;22.30;91.20
21950;DHT22;11139;51.284;7.226;2022-08-19T01:38:49;22.30;91.20
21950;DHT22;11139;51.284;7.226;2022-08-19T01:41:17;22.30;91.20
21950;DHT22;11139;51.284;7.226;2022-08-19T01:43:46;22.30;91.20
21950;DHT22;11139;51.284;7.226;2022-08-19T01:46:11;22.30;91.20
21950;DHT22;11139;51.284;7.226;2022-08-19T01:48:38;22.30;91.20
21950;DHT22;11139;51.284;7.226;2022-08-19T01:51:04;22.30;91.20
21950;DHT22;11139;51.284;7.226;2022-08-19T01:53:30;22.20;91.20
21950;DHT22;11139;51.284;7.226;2022-08-19T01:55:56;22.20;91.20
21950;DHT22;11139;51.284;7.226;2022-08-19T01:58:23;22.20;91.10
21950;DHT22;11139;51.284;7.226;2022-08-19T02:00:49;22.20;91.20
21950;DHT22;11139;51.284;7.226;2022-08-19T02:03:15;22.20;91.20
21950;DHT22;11139;51.284;7.226;2022-08-19T02:05:41;22.20;91.20
21950;DHT22;11139;51.284;7.226;2022-08-19T02:08:10;22.20;91.20
21950;DHT22;11139;51.284;7.226;2022-08-19T02:10:38;22.20;91.20
21950;DHT22;11139;51.284;7.226;2022-08-19T02:13:07;22.20;91.10
21950;DHT22;11139;51.284;7.226;2022-08-19T02:15:39;22.20;91.10
21950;DHT22;11139;51.284;7.226;2022-08-19T02:18:05;22.20;91.20
21950;DHT22;11139;51.284;7.226;2022-08-19T02:20:31;22.20;91.20
21950;DHT22;11139;51.284;7.226;2022-08-19T02:22:57;22.20;91.20
21950;DHT22;11139;51.284;7.226;2022-08-19T02:25:22;22.10;91.10
21950;DHT22;11139;51.284;7.226;2022-08-19T02:27:51;22.10;91.10
21950;DHT22;11139;51.284;7.226;2022-08-19T02:30:17;22.10;91.20
21950;DHT22;11139;51.284;7.226;2022-08-19T02:32:43;22.10;91.10
21950;DHT22;11139;51.284;7.226;2022-08-19T02:35:08;22.10;91.10
21950;DHT22;11139;51.284;7.226;2022-08-19T02:37:40;22.10;91.10
21950;DHT22;11139;51.284;7.226;2022-08-19T02:40:27;22.10;91.10
21950;DHT22;11139;51.284;7.226;2022-08-19T02:42:53;22.10;91.20
21950;DHT22;11139;51.284;7.226;2022-08-19T02:45:19;22.10;91.10
21950;DHT22;11139;51.284;7.226;2022-08-19T02:47:45;22.10;91.10
21950;DHT22;11139;51.284;7.226;2022-08-19T02:50:11;22.10;91.10
21950;DHT22;11139;51.284;7.226;2022-08-19T02:52:36;22.00;91.10
21950;DHT22;11139;51.284;7.226;2022-08-19T02:55:02;22.10;91.10
21950;DHT22;11139;51.284;7.226;2022-08-19T02:57:29;22.00;91.10
21950;DHT22;11139;51.284;7.226;2022-08-19T02:59:56;22.00;91.10
21950;DHT22;11139;51.284;7.226;2022-08-19T03:02:24;22.00;91.10
21950;DHT22;11139;51.284;7.226;2022-08-19T03:04:56;22.00;91.10
21950;DHT22;11139;51.284;7.226;2022-08-19T03:07:21;22.00;91.10
21950;DHT22;11139;51.284;7.226;2022-08-19T03:09:56;22.00;91.10
21950;DHT22;11139;51.284;7.226;2022-08-19T03:12:22;22.00;91.10
21950;DHT22;11139;51.284;7.226;2022-08-19T03:14:53;22.00;91.10
21950;DHT22;11139;51.284;7.226;2022-08-19T03:17:22;22.00;91.10
21950;DHT22;11139;51.284;7.226;2022-08-19T03:19:51;22.00;91.10
21950;DHT22;11139;51.284;7.226;2022-08-19T03:22:16;22.00;91.10
21950;DHT22;11139;51.284;7.226;2022-08-19T03:24:42;21.90;91.10
21950;DHT22;11139;51.284;7.226;2022-08-19T03:27:10;22.00;91.10
21950;DHT22;11139;51.284;7.226;2022-08-19T03:29:39;21.90;91.10
21950;DHT22;11139;51.284;7.226;2022-08-19T03:32:05;21.90;91.10
21950;DHT22;11139;51.284;7.226;2022-08-19T03:34:31;21.90;91.10
21950;DHT22;11139;51.284;7.226;2022-08-19T03:36:58;21.90;91.10
21950;DHT22;11139;51.284;7.226;2022-08-19T03:39:33;21.90;91.10
21950;DHT22;11139;51.284;7.226;2022-08-19T03:41:59;21.90;91.10
21950;DHT22;11139;51.284;7.226;2022-08-19T03:44:27;21.90;91.10
21950;DHT22;11139;51.284;7.226;2022-08-19T03:46:57;21.90;91.10
21950;DHT22;11139;51.284;7.226;2022-08-19T03:49:27;21.90;91.10
21950;DHT22;11139;51.284;7.226;2022-08-19T03:51:54;21.90;91.10
21950;DHT22;11139;51.284;7.226;2022-08-19T03:54:21;21.80;91.10
21950;DHT22;11139;51.284;7.226;2022-08-19T03:56:48;21.80;91.10
21950;DHT22;11139;51.284;7.226;2022-08-19T03:59:16;21.80;91.10
21950;DHT22;11139;51.284;7.226;2022-08-19T04:01:42;21.80;91.10
21950;DHT22;11139;51.284;7.226;2022-08-19T04:04:08;21.80;91.10
21950;DHT22;11139;51.284;7.226;2022-08-19T04:06:35;21.80;91.10
21950;DHT22;11139;51.284;7.226;2022-08-19T04:09:02;21.80;91.40
21950;DHT22;11139;51.284;7.226;2022-08-19T04:11:30;21.70;91.00
21950;DHT22;11139;51.284;7.226;2022-08-19T04:13:56;21.80;91.10
21950;DHT22;11139;51.284;7.226;2022-08-19T04:16:22;21.80;91.10
21950;DHT22;11139;51.284;7.226;2022-08-19T04:18:48;21.70;91.10
21950;DHT22;11139;51.284;7.226;2022-08-19T04:21:18;21.80;91.50
21950;DHT22;11139;51.284;7.226;2022-08-19T04:23:44;21.70;91.00
21950;DHT22;11139;51.284;7.226;2022-08-19T04:26:21;21.70;91.10
21950;DHT22;11139;51.284;7.226;2022-08-19T04:28:46;21.70;91.10
21950;DHT22;11139;51.284;7.226;2022-08-19T04:31:13;21.70;91.10
21950;DHT22;11139;51.284;7.226;2022-08-19T04:33:39;21.70;91.10
21950;DHT22;11139;51.284;7.226;2022-08-19T04:36:05;21.70;91.10
21950;DHT22;11139;51.284;7.226;2022-08-19T04:38:31;21.70;91.10
21950;DHT22;11139;51.284;7.226;2022-08-19T04:40:56;21.70;91.10
21950;DHT22;11139;51.284;7.226;2022-08-19T04:43:40;21.70;91.10
21950;DHT22;11139;51.284;7.226;2022-08-19T04:46:11;21.70;91.10
21950;DHT22;11139;51.284;7.226;2022-08-19T04:48:38;21.70;91.10
21950;DHT22;11139;51.284;7.226;2022-08-19T04:51:06;21.60;91.10
21950;DHT22;11139;51.284;7.226;2022-08-19T04:53:32;21.70;91.10
21950;DHT22;11139;51.284;7.226;2022-08-19T04:55:59;21.60;91.10
21950;DHT22;11139;51.284;7.226;2022-08-19T04:58:26;21.60;91.10
21950;DHT22;11139;51.284;7.226;2022-08-19T05:00:52;21.60;91.10
21950;DHT22;11139;51.284;7.226;2022-08-19T05:03:18;21.60;91.10
21950;DHT22;11139;51.284;7.226;2022-08-19T05:05:44;21.60;91.10
21950;DHT22;11139;51.284;7.226;2022-08-19T05:08:12;21.60;91.10
21950;DHT22;11139;51.284;7.226;2022-08-19T05:10:37;21.60;91.10
21950;DHT22;11139;51.284;7.226;2022-08-19T05:13:04;21.60;91.10
21950;DHT22;11139;51.284;7.226;2022-08-19T05:15:30;21.60;91.10
21950;DHT22;11139;51.284;7.226;2022-08-19T05:17:55;21.60;91.10
21950;DHT22;11139;51.284;7.226;2022-08-19T05:20:39;21.60;91.10
21950;DHT22;11139;51.284;7.226;2022-08-19T05:23:24;21.60;91.10
21950;DHT22;11139;51.284;7.226;2022-08-19T05:25:50;21.60;91.10
21950;DHT22;11139;51.284;7.226;2022-08-19T05:28:16;21.50;91.10
21950;DHT22;11139;51.284;7.226;2022-08-19T05:30:41;21.50;91.20
21950;DHT22;11139;51.284;7.226;2022-08-19T05:33:10;21.50;91.20
21950;DHT22;11139;51.284;7.226;2022-08-19T05:35:37;21.50;91.20
21950;DHT22;11139;51.284;7.226;2022-08-19T05:38:03;21.50;91.20
21950;DHT22;11139;51.284;7.226;2022-08-19T05:40:29;21.50;91.20
21950;DHT22;11139;51.284;7.226;2022-08-19T05:42:55;21.50;91.20
21950;DHT22;11139;51.284;7.226;2022-08-19T05:45:21;21.50;91.20
21950;DHT22;11139;51.284;7.226;2022-08-19T05:47:47;21.50;91.20
21950;DHT22;11139;51.284;7.226;2022-08-19T05:50:12;21.50;91.20
21950;DHT22;11139;51.284;7.226;2022-08-19T05:52:38;21.50;91.20
21950;DHT22;11139;51.284;7.226;2022-08-19T05:55:04;21.50;91.30
21950;DHT22;11139;51.284;7.226;2022-08-19T05:57:30;21.50;91.30
21950;DHT22;11139;51.284;7.226;2022-08-19T05:59:56;21.40;91.20
21950;DHT22;11139;51.284;7.226;2022-08-19T06:02:22;21.40;91.30
21950;DHT22;11139;51.284;7.226;2022-08-19T06:04:48;21.40;91.30
21950;DHT22;11139;51.284;7.226;2022-08-19T06:07:14;21.40;91.30
21950;DHT22;11139;51.284;7.226;2022-08-19T06:09:40;21.40;91.30
21950;DHT22;11139;51.284;7.226;2022-08-19T06:12:06;21.40;91.30
21950;DHT22;11139;51.284;7.226;2022-08-19T06:14:33;21.40;91.30
21950;DHT22;11139;51.284;7.226;2022-08-19T06:16:59;21.40;91.30
21950;DHT22;11139;51.284;7.226;2022-08-19T06:19:27;21.40;91.30
21950;DHT22;11139;51.284;7.226;2022-08-19T06:21:54;21.40;91.30
21950;DHT22;11139;51.284;7.226;2022-08-19T06:24:21;21.40;91.30
21950;DHT22;11139;51.284;7.226;2022-08-19T06:26:48;21.40;91.30
21950;DHT22;11139;51.284;7.226;2022-08-19T06:29:15;21.40;91.30
21950;DHT22;11139;51.284;7.226;2022-08-19T06:31:41;21.40;91.30
21950;DHT22;11139;51.284;7.226;2022-08-19T06:34:07;21.40;91.30
21950;DHT22;11139;51.284;7.226;2022-08-19T06:36:34;21.40;91.30
21950;DHT22;11139;51.284;7.226;2022-08-19T06:39:01;21.40;91.30
21950;DHT22;11139;51.284;7.226;2022-08-19T06:41:28;21.40;91.30
21950;DHT22;11139;51.284;7.226;2022-08-19T06:43:53;21.40;91.40
21950;DHT22;11139;51.284;7.226;2022-08-19T06:46:19;21.40;91.40
21950;DHT22;11139;51.284;7.226;2022-08-19T06:48:45;21.40;91.40
21950;DHT22;11139;51.284;7.226;2022-08-19T06:51:12;21.30;91.30
21950;DHT22;11139;51.284;7.226;2022-08-19T06:53:41;21.30;91.40
21950;DHT22;11139;51.284;7.226;2022-08-19T06:56:12;21.30;91.40
21950;DHT22;11139;51.284;7.226;2022-08-19T06:58:38;21.30;91.40
21950;DHT22;11139;51.284;7.226;2022-08-19T07:01:03;21.30;91.40
21950;DHT22;11139;51.284;7.226;2022-08-19T07:03:30;21.30;91.50
21950;DHT22;11139;51.284;7.226;2022-08-19T07:05:56;21.30;91.40
21950;DHT22;11139;51.284;7.226;2022-08-19T07:08:22;21.30;91.40
21950;DHT22;11139;51.284;7.226;2022-08-19T07:10:49;21.30;91.50
21950;DHT22;11139;51.284;7.226;2022-08-19T07:13:14;21.30;91.50
21950;DHT22;11139;51.284;7.226;2022-08-19T07:15:40;21.30;91.50
21950;DHT22;11139;51.284;7.226;2022-08-19T07:18:06;21.30;91.60
21950;DHT22;11139;51.284;7.226;2022-08-19T07:20:31;21.30;91.60
21950;DHT22;11139;51.284;7.226;2022-08-19T07:22:58;21.30;91.60
21950;DHT22;11139;51.284;7.226;2022-08-19T07:25:23;21.30;91.60
21950;DHT22;11139;51.284;7.226;2022-08-19T07:27:49;21.30;91.60
21950;DHT22;11139;51.284;7.226;2022-08-19T07:30:15;21.30;91.70
21950;DHT22;11139;51.284;7.226;2022-08-19T07:32:41;21.30;91.70
21950;DHT22;11139;51.284;7.226;2022-08-19T07:35:07;21.30;91.70
21950;DHT22;11139;51.284;7.226;2022-08-19T07:37:34;21.30;93.80
21950;DHT22;11139;51.284;7.226;2022-08-19T07:40:03;21.20;94.90
21950;DHT22;11139;51.284;7.226;2022-08-19T07:42:29;21.20;94.90
21950;DHT22;11139;51.284;7.226;2022-08-19T07:44:57;21.20;94.70
21950;DHT22;11139;51.284;7.226;2022-08-19T07:47:23;21.20;94.60
21950;DHT22;11139;51.284;7.226;2022-08-19T07:49:49;21.20;94.40
21950;DHT22;11139;51.284;7.226;2022-08-19T07:52:14;21.20;94.50
21950;DHT22;11139;51.284;7.226;2022-08-19T07:54:42;21.10;94.60
21950;DHT22;11139;51.284;7.226;2022-08-19T07:57:08;21.20;94.40
21950;DHT22;11139;51.284;7.226;2022-08-19T07:59:34;21.20;94.40
21950;DHT22;11139;51.284;7.226;2022-08-19T08:02:00;21.20;94.30
21950;DHT22;11139;51.284;7.226;2022-08-19T08:04:26;21.20;94.40
21950;DHT22;11139;51.284;7.226;2022-08-19T08:07:10;21.20;94.40
21950;DHT22;11139;51.284;7.226;2022-08-19T08:09:54;21.10;94.60
21950;DHT22;11139;51.284;7.226;2022-08-19T08:12:31;21.10;94.40
21950;DHT22;11139;51.284;7.226;2022-08-19T08:14:58;21.10;94.50
21950;DHT22;11139;51.284;7.226;2022-08-19T08:17:25;21.20;94.80
21950;DHT22;11139;51.284;7.226;2022-08-19T08:19:51;21.10;94.70
21950;DHT22;11139;51.284;7.226;2022-08-19T08:22:18;21.20;94.90
21950;DHT22;11139;51.284;7.226;2022-08-19T08:25:13;21.10;94.70
21950;DHT22;11139;51.284;7.226;2022-08-19T08:27:39;21.20;94.60
21950;DHT22;11139;51.284;7.226;2022-08-19T08:30:10;21.10;94.70
21950;DHT22;11139;51.284;7.226;2022-08-19T08:32:36;21.10;94.80
21950;DHT22;11139;51.284;7.226;2022-08-19T08:35:04;21.10;95.10
21950;DHT22;11139;51.284;7.226;2022-08-19T08:37:29;21.10;95.00
21950;DHT22;11139;51.284;7.226;2022-08-19T08:39:55;21.20;95.20
21950;DHT22;11139;51.284;7.226;2022-08-19T08:42:23;21.10;95.20
21950;DHT22;11139;51.284;7.226;2022-08-19T08:44:58;21.10;95.30
21950;DHT22;11139;51.284;7.226;2022-08-19T08:47:23;21.10;95.30
21950;DHT22;11139;51.284;7.226;2022-08-19T08:49:51;21.10;95.30
21950;DHT22;11139;51.284;7.226;2022-08-19T08:52:20;21.10;95.30
21950;DHT22;11139;51.284;7.226;2022-08-19T08:54:47;21.20;95.80
21950;DHT22;11139;51.284;7.226;2022-08-19T08:57:15;21.10;95.30
21950;DHT22;11139;51.284;7.226;2022-08-19T08:59:43;21.10;95.40
21950;DHT22;11139;51.284;7.226;2022-08-19T09:02:10;21.20;95.50
21950;DHT22;11139;51.284;7.226;2022-08-19T09:04:36;21.10;95.60
21950;DHT22;11139;51.284;7.226;2022-08-19T09:09:41;21.10;95.50
21950;DHT22;11139;51.284;7.226;2022-08-19T09:12:10;21.10;95.60
21950;DHT22;11139;51.284;7.226;2022-08-19T09:17:22;21.10;95.40
21950;DHT22;11139;51.284;7.226;2022-08-19T09:22:26;21.10;95.50
21950;DHT22;11139;51.284;7.226;2022-08-19T09:24:52;21.10;95.60
21950;DHT22;11139;51.284;7.226;2022-08-19T09:27:19;21.10;95.50
21950;DHT22;11139;51.284;7.226;2022-08-19T09:29:46;21.10;95.50
21950;DHT22;11139;51.284;7.226;2022-08-19T09:32:13;21.20;95.60
21950;DHT22;11139;51.284;7.226;2022-08-19T09:34:39;21.20;95.60
21950;DHT22;11139;51.284;7.226;2022-08-19T09:37:04;21.20;95.50
21950;DHT22;11139;51.284;7.226;2022-08-19T09:39:31;21.20;95.30
21950;DHT22;11139;51.284;7.226;2022-08-19T09:41:57;21.20;95.20
21950;DHT22;11139;51.284;7.226;2022-08-19T09:44:22;21.20;95.10
21950;DHT22;11139;51.284;7.226;2022-08-19T09:46:48;21.10;95.10
21950;DHT22;11139;51.284;7.226;2022-08-19T09:49:17;21.20;95.10
21950;DHT22;11139;51.284;7.226;2022-08-19T09:51:44;21.20;95.00
21950;DHT22;11139;51.284;7.226;2022-08-19T09:54:10;21.20;95.00
21950;DHT22;11139;51.284;7.226;2022-08-19T09:56:35;21.20;95.10
21950;DHT22;11139;51.284;7.226;2022-08-19T09:59:02;21.20;95.10
21950;DHT22;11139;51.284;7.226;2022-08-19T10:01:30;21.20;95.00
21950;DHT22;11139;51.284;7.226;2022-08-19T10:03:56;21.20;95.00
21950;DHT22;11139;51.284;7.226;2022-08-19T10:06:23;21.20;95.00
21950;DHT22;11139;51.284;7.226;2022-08-19T10:08:49;21.20;95.00
21950;DHT22;11139;51.284;7.226;2022-08-19T10:11:15;21.20;95.00
21950;DHT22;11139;51.284;7.226;2022-08-19T10:13:43;21.20;95.00
21950;DHT22;11139;51.284;7.226;2022-08-19T10:16:10;21.20;95.00
21950;DHT22;11139;51.284;7.226;2022-08-19T10:18:36;21.20;95.00
21950;DHT22;11139;51.284;7.226;2022-08-19T10:21:09;21.20;94.80
21950;DHT22;11139;51.284;7.226;2022-08-19T10:23:36;21.20;94.90
21950;DHT22;11139;51.284;7.226;2022-08-19T10:26:01;21.20;94.70
21950;DHT22;11139;51.284;7.226;2022-08-19T10:28:28;21.20;94.70
21950;DHT22;11139;51.284;7.226;2022-08-19T10:30:53;21.20;94.70
21950;DHT22;11139;51.284;7.226;2022-08-19T10:33:19;21.20;94.70
21950;DHT22;11139;51.284;7.226;2022-08-19T10:35:44;21.20;94.70
21950;DHT22;11139;51.284;7.226;2022-08-19T10:38:12;21.20;94.60
21950;DHT22;11139;51.284;7.226;2022-08-19T10:40:37;21.20;94.60
21950;DHT22;11139;51.284;7.226;2022-08-19T10:43:03;21.20;94.60
21950;DHT22;11139;51.284;7.226;2022-08-19T10:45:28;21.20;94.70
21950;DHT22;11139;51.284;7.226;2022-08-19T10:47:54;21.20;94.60
21950;DHT22;11139;51.284;7.226;2022-08-19T10:50:20;21.30;94.60
21950;DHT22;11139;51.284;7.226;2022-08-19T10:53:05;21.30;94.60
21950;DHT22;11139;51.284;7.226;2022-08-19T10:55:31;21.30;94.50
21950;DHT22;11139;51.284;7.226;2022-08-19T10:58:16;21.30;94.40
21950;DHT22;11139;51.284;7.226;2022-08-19T11:00:42;21.30;94.40
21950;DHT22;11139;51.284;7.226;2022-08-19T11:03:09;21.30;94.30
21950;DHT22;11139;51.284;7.226;2022-08-19T11:05:34;21.40;94.30
21950;DHT22;11139;51.284;7.226;2022-08-19T11:08:00;21.40;94.30
21950;DHT22;11139;51.284;7.226;2022-08-19T11:10:26;21.40;94.30
21950;DHT22;11139;51.284;7.226;2022-08-19T11:12:51;21.40;94.30
21950;DHT22;11139;51.284;7.226;2022-08-19T11:15:20;21.50;94.20
21950;DHT22;11139;51.284;7.226;2022-08-19T11:17:46;21.50;94.10
21950;DHT22;11139;51.284;7.226;2022-08-19T11:20:12;21.50;94.00
21950;DHT22;11139;51.284;7.226;2022-08-19T11:22:39;21.50;94.00
21950;DHT22;11139;51.284;7.226;2022-08-19T11:25:05;21.50;93.90
21950;DHT22;11139;51.284;7.226;2022-08-19T11:27:31;21.50;94.00
21950;DHT22;11139;51.284;7.226;2022-08-19T11:29:56;21.50;94.00
21950;DHT22;11139;51.284;7.226;2022-08-19T11:32:22;21.40;94.00
21950;DHT22;11139;51.284;7.226;2022-08-19T11:34:47;21.40;94.00
21950;DHT22;11139;51.284;7.226;2022-08-19T11:37:13;21.40;93.90
21950;DHT22;11139;51.284;7.226;2022-08-19T11:39:38;21.40;94.00
21950;DHT22;11139;51.284;7.226;2022-08-19T11:42:04;21.40;94.00
21950;DHT22;11139;51.284;7.226;2022-08-19T11:44:49;21.40;94.00
21950;DHT22;11139;51.284;7.226;2022-08-19T11:47:15;21.40;93.90
21950;DHT22;11139;51.284;7.226;2022-08-19T11:49:40;21.50;93.80
21950;DHT22;11139;51.284;7.226;2022-08-19T11:52:07;21.50;93.70
21950;DHT22;11139;51.284;7.226;2022-08-19T11:54:33;21.50;93.40
21950;DHT22;11139;51.284;7.226;2022-08-19T11:56:58;21.50;93.40
21950;DHT22;11139;51.284;7.226;2022-08-19T11:59:24;21.60;93.10
21950;DHT22;11139;51.284;7.226;2022-08-19T12:01:51;21.60;93.10
21950;DHT22;11139;51.284;7.226;2022-08-19T12:04:17;21.60;93.10
21950;DHT22;11139;51.284;7.226;2022-08-19T12:06:42;21.60;93.10
21950;DHT22;11139;51.284;7.226;2022-08-19T12:09:08;21.60;93.10
21950;DHT22;11139;51.284;7.226;2022-08-19T12:11:34;21.80;93.00
21950;DHT22;11139;51.284;7.226;2022-08-19T12:14:02;21.80;92.80
21950;DHT22;11139;51.284;7.226;2022-08-19T12:16:28;21.80;92.70
21950;DHT22;11139;51.284;7.226;2022-08-19T12:18:54;21.90;92.60
21950;DHT22;11139;51.284;7.226;2022-08-19T12:21:24;21.90;92.50
21950;DHT22;11139;51.284;7.226;2022-08-19T12:23:50;21.90;92.40
21950;DHT22;11139;51.284;7.226;2022-08-19T12:26:16;21.90;92.40
21950;DHT22;11139;51.284;7.226;2022-08-19T12:28:42;21.90;92.40
21950;DHT22;11139;51.284;7.226;2022-08-19T12:31:08;21.80;92.50
21950;DHT22;11139;51.284;7.226;2022-08-19T12:33:33;21.90;92.40
21950;DHT22;11139;51.284;7.226;2022-08-19T12:36:00;21.80;92.50
21950;DHT22;11139;51.284;7.226;2022-08-19T12:38:26;21.80;92.70
21950;DHT22;11139;51.284;7.226;2022-08-19T12:40:52;21.80;92.60
21950;DHT22;11139;51.284;7.226;2022-08-19T12:43:17;21.80;92.30
21950;DHT22;11139;51.284;7.226;2022-08-19T12:45:45;21.80;92.30
21950;DHT22;11139;51.284;7.226;2022-08-19T12:48:11;21.80;92.30
21950;DHT22;11139;51.284;7.226;2022-08-19T12:50:39;21.80;92.40
21950;DHT22;11139;51.284;7.226;2022-08-19T12:53:04;21.80;92.40
21950;DHT22;11139;51.284;7.226;2022-08-19T12:55:30;21.70;92.50
21950;DHT22;11139;51.284;7.226;2022-08-19T12:57:55;21.80;92.30
21950;DHT22;11139;51.284;7.226;2022-08-19T13:00:22;21.90;92.10
21950;DHT22;11139;51.284;7.226;2022-08-19T13:02:48;21.80;92.10
21950;DHT22;11139;51.284;7.226;2022-08-19T13:05:19;21.90;91.90
21950;DHT22;11139;51.284;7.226;2022-08-19T13:07:47;22.00;91.70
21950;DHT22;11139;51.284;7.226;2022-08-19T13:10:14;22.10;91.40
21950;DHT22;11139;51.284;7.226;2022-08-19T13:12:41;22.00;91.50
21950;DHT22;11139;51.284;7.226;2022-08-19T13:15:06;21.90;91.70
21950;DHT22;11139;51.284;7.226;2022-08-19T13:17:33;21.90;91.80
21950;DHT22;11139;51.284;7.226;2022-08-19T13:19:59;21.90;91.70
21950;DHT22;11139;51.284;7.226;2022-08-19T13:22:24;22.00;91.60
21950;DHT22;11139;51.284;7.226;2022-08-19T13:24:50;22.00;91.60
21950;DHT22;11139;51.284;7.226;2022-08-19T13:27:16;22.00;91.50
21950;DHT22;11139;51.284;7.226;2022-08-19T13:29:41;22.00;91.30
21950;DHT22;11139;51.284;7.226;2022-08-19T13:32:26;22.10;91.30
21950;DHT22;11139;51.284;7.226;2022-08-19T13:35:10;22.10;91.30
21950;DHT22;11139;51.284;7.226;2022-08-19T13:37:35;22.00;91.40
21950;DHT22;11139;51.284;7.226;2022-08-19T13:40:14;22.00;91.40
21950;DHT22;11139;51.284;7.226;2022-08-19T13:42:42;22.00;91.40
21950;DHT22;11139;51.284;7.226;2022-08-19T13:45:09;22.10;91.00
21950;DHT22;11139;51.284;7.226;2022-08-19T13:47:34;22.20;90.90
21950;DHT22;11139;51.284;7.226;2022-08-19T13:50:03;22.20;90.90
21950;DHT22;11139;51.284;7.226;2022-08-19T13:52:29;22.10;91.10
21950;DHT22;11139;51.284;7.226;2022-08-19T13:54:54;22.10;90.90
21950;DHT22;11139;51.284;7.226;2022-08-19T13:57:20;22.20;90.90
21950;DHT22;11139;51.284;7.226;2022-08-19T13:59:45;22.20;90.80
21950;DHT22;11139;51.284;7.226;2022-08-19T14:02:11;22.10;90.90
21950;DHT22;11139;51.284;7.226;2022-08-19T14:04:36;22.10;91.10
21950;DHT22;11139;51.284;7.226;2022-08-19T14:07:03;22.00;91.10
21950;DHT22;11139;51.284;7.226;2022-08-19T14:09:28;22.10;91.10
21950;DHT22;11139;51.284;7.226;2022-08-19T14:11:54;22.10;91.00
21950;DHT22;11139;51.284;7.226;2022-08-19T14:14:20;22.10;91.00
21950;DHT22;11139;51.284;7.226;2022-08-19T14:16:46;22.20;90.70
21950;DHT22;11139;51.284;7.226;2022-08-19T14:19:12;22.30;90.50
21950;DHT22;11139;51.284;7.226;2022-08-19T14:21:37;22.30;90.70
21950;DHT22;11139;51.284;7.226;2022-08-19T14:24:04;22.30;90.60
21950;DHT22;11139;51.284;7.226;2022-08-19T14:26:30;22.30;90.40
21950;DHT22;11139;51.284;7.226;2022-08-19T14:28:56;22.30;90.70
21950;DHT22;11139;51.284;7.226;2022-08-19T14:31:22;22.20;90.70
21950;DHT22;11139;51.284;7.226;2022-08-19T14:33:49;22.20;90.60
21950;DHT22;11139;51.284;7.226;2022-08-19T14:36:15;22.20;90.50
21950;DHT22;11139;51.284;7.226;2022-08-19T14:38:44;22.30;90.60
21950;DHT22;11139;51.284;7.226;2022-08-19T14:41:15;22.30;90.50
21950;DHT22;11139;51.284;7.226;2022-08-19T14:43:42;22.20;90.70
21950;DHT22;11139;51.284;7.226;2022-08-19T14:46:11;22.20;90.90
21950;DHT22;11139;51.284;7.226;2022-08-19T14:48:37;22.10;91.00
21950;DHT22;11139;51.284;7.226;2022-08-19T14:51:04;22.10;91.10
21950;DHT22;11139;51.284;7.226;2022-08-19T14:53:30;22.10;91.30
21950;DHT22;11139;51.284;7.226;2022-08-19T14:55:55;22.10;91.40
21950;DHT22;11139;51.284;7.226;2022-08-19T14:58:21;22.20;91.00
21950;DHT22;11139;51.284;7.226;2022-08-19T15:00:47;22.20;90.60
21950;DHT22;11139;51.284;7.226;2022-08-19T15:03:13;22.20;90.60
21950;DHT22;11139;51.284;7.226;2022-08-19T15:05:39;22.30;90.30
21950;DHT22;11139;51.284;7.226;2022-08-19T15:08:04;22.40;90.10
21950;DHT22;11139;51.284;7.226;2022-08-19T15:10:30;22.40;89.70
21950;DHT22;11139;51.284;7.226;2022-08-19T15:12:56;22.40;89.40
21950;DHT22;11139;51.284;7.226;2022-08-19T15:15:22;22.40;89.50
21950;DHT22;11139;51.284;7.226;2022-08-19T15:17:48;22.40;89.70
21950;DHT22;11139;51.284;7.226;2022-08-19T15:20:15;22.40;90.00
21950;DHT22;11139;51.284;7.226;2022-08-19T15:22:41;22.40;90.00
21950;DHT22;11139;51.284;7.226;2022-08-19T15:25:08;22.40;89.70
21950;DHT22;11139;51.284;7.226;2022-08-19T15:27:34;22.40;89.60
21950;DHT22;11139;51.284;7.226;2022-08-19T15:30:01;22.40;89.70
21950;DHT22;11139;51.284;7.226;2022-08-19T15:32:26;22.40;89.50
21950;DHT22;11139;51.284;7.226;2022-08-19T15:34:53;22.50;89.30
21950;DHT22;11139;51.284;7.226;2022-08-19T15:37:19;22.50;89.10
21950;DHT22;11139;51.284;7.226;2022-08-19T15:39:49;22.50;88.80
21950;DHT22;11139;51.284;7.226;2022-08-19T15:42:15;22.60;88.70
21950;DHT22;11139;51.284;7.226;2022-08-19T15:44:41;22.60;88.40